Terminal Aerodrome Forecast
Issued by NWS Sterling, VA

Home | Current Version | Previous Version | Text Only | Print | Product List | Glossary On
Versions: 1 2 3 4 5 6 7 8 9 10 11 12 13 14 15 16 17 18 19 20 21 22
949
FTUS41 KLWX 212320
TAFIAD
TAF
KIAD 212320Z 2200/2306 15005KT P6SM BKN050
     FM220800 14004KT P6SM OVC015
     FM221100 14005KT 5SM BR BKN008 OVC015
     FM221500 17006KT P6SM BKN025 OVC050
     FM221800 19006KT P6SM VCSH BKN040
     FM230000 21005KT P6SM BKN070=

USA.gov is the U.S. government's official web portal to all federal, state and local government web resources and services.